sensor_id;sensor_type;location;lat;lon;timestamp;temperature;humidity
20815;DHT22;10568;48.176;16.316;2022-08-19T00:02:25;20.50;99.90
20815;DHT22;10568;48.176;16.316;2022-08-19T00:04:51;20.40;99.90
20815;DHT22;10568;48.176;16.316;2022-08-19T00:07:21;20.40;99.90
20815;DHT22;10568;48.176;16.316;2022-08-19T00:09:47;20.30;99.90
20815;DHT22;10568;48.176;16.316;2022-08-19T00:12:13;20.30;99.90
20815;DHT22;10568;48.176;16.316;2022-08-19T00:14:39;20.30;99.90
20815;DHT22;10568;48.176;16.316;2022-08-19T00:17:07;20.30;99.90
20815;DHT22;10568;48.176;16.316;2022-08-19T00:19:34;20.20;99.90
20815;DHT22;10568;48.176;16.316;2022-08-19T00:22:00;20.10;99.90
20815;DHT22;10568;48.176;16.316;2022-08-19T00:24:26;20.10;99.90
20815;DHT22;10568;48.176;16.316;2022-08-19T00:26:54;20.10;99.90
20815;DHT22;10568;48.176;16.316;2022-08-19T00:29:23;20.10;99.90
20815;DHT22;10568;48.176;16.316;2022-08-19T00:31:50;20.00;99.90
20815;DHT22;10568;48.176;16.316;2022-08-19T00:34:18;20.00;99.90
20815;DHT22;10568;48.176;16.316;2022-08-19T00:36:44;20.00;99.90
20815;DHT22;10568;48.176;16.316;2022-08-19T00:39:11;20.00;99.90
20815;DHT22;10568;48.176;16.316;2022-08-19T00:41:39;19.90;99.90
20815;DHT22;10568;48.176;16.316;2022-08-19T00:44:15;19.90;99.90
20815;DHT22;10568;48.176;16.316;2022-08-19T00:46:44;19.90;99.90
20815;DHT22;10568;48.176;16.316;2022-08-19T00:49:23;19.80;99.90
20815;DHT22;10568;48.176;16.316;2022-08-19T00:51:59;19.80;99.90
20815;DHT22;10568;48.176;16.316;2022-08-19T00:54:27;19.80;99.90
20815;DHT22;10568;48.176;16.316;2022-08-19T00:56:55;19.70;99.90
20815;DHT22;10568;48.176;16.316;2022-08-19T00:59:21;19.70;99.90
20815;DHT22;10568;48.176;16.316;2022-08-19T01:01:47;19.70;99.90
20815;DHT22;10568;48.176;16.316;2022-08-19T01:04:13;19.70;99.90
20815;DHT22;10568;48.176;16.316;2022-08-19T01:06:40;19.80;99.90
20815;DHT22;10568;48.176;16.316;2022-08-19T01:09:07;19.80;99.90
20815;DHT22;10568;48.176;16.316;2022-08-19T01:11:36;19.90;99.90
20815;DHT22;10568;48.176;16.316;2022-08-19T01:14:04;19.90;99.90
20815;DHT22;10568;48.176;16.316;2022-08-19T01:16:32;19.90;99.90
20815;DHT22;10568;48.176;16.316;2022-08-19T01:19:00;19.90;99.90
20815;DHT22;10568;48.176;16.316;2022-08-19T01:21:34;20.00;99.90
20815;DHT22;10568;48.176;16.316;2022-08-19T01:24:04;20.00;99.90
20815;DHT22;10568;48.176;16.316;2022-08-19T01:26:29;20.00;99.90
20815;DHT22;10568;48.176;16.316;2022-08-19T01:28:58;20.00;99.90
20815;DHT22;10568;48.176;16.316;2022-08-19T01:31:25;20.00;99.90
20815;DHT22;10568;48.176;16.316;2022-08-19T01:33:52;20.00;99.90
20815;DHT22;10568;48.176;16.316;2022-08-19T01:36:36;20.00;99.90
20815;DHT22;10568;48.176;16.316;2022-08-19T01:39:05;20.10;99.90
20815;DHT22;10568;48.176;16.316;2022-08-19T01:41:32;20.10;99.90
20815;DHT22;10568;48.176;16.316;2022-08-19T01:43:58;20.10;99.90
20815;DHT22;10568;48.176;16.316;2022-08-19T01:46:24;20.10;99.90
20815;DHT22;10568;48.176;16.316;2022-08-19T01:48:50;20.10;99.90
20815;DHT22;10568;48.176;16.316;2022-08-19T01:51:15;20.10;99.90
20815;DHT22;10568;48.176;16.316;2022-08-19T01:53:41;20.10;99.90
20815;DHT22;10568;48.176;16.316;2022-08-19T01:56:08;20.10;99.90
20815;DHT22;10568;48.176;16.316;2022-08-19T01:58:38;20.10;99.90
20815;DHT22;10568;48.176;16.316;2022-08-19T02:01:07;20.10;99.90
20815;DHT22;10568;48.176;16.316;2022-08-19T02:03:33;20.10;99.90
20815;DHT22;10568;48.176;16.316;2022-08-19T02:06:01;20.10;99.90
20815;DHT22;10568;48.176;16.316;2022-08-19T02:08:36;20.20;99.90
20815;DHT22;10568;48.176;16.316;2022-08-19T02:11:02;20.20;99.90
20815;DHT22;10568;48.176;16.316;2022-08-19T02:13:30;20.20;99.90
20815;DHT22;10568;48.176;16.316;2022-08-19T02:15:56;20.20;99.90
20815;DHT22;10568;48.176;16.316;2022-08-19T02:18:21;20.20;99.90
20815;DHT22;10568;48.176;16.316;2022-08-19T02:20:47;20.20;99.90
20815;DHT22;10568;48.176;16.316;2022-08-19T02:23:14;20.20;99.90
20815;DHT22;10568;48.176;16.316;2022-08-19T02:25:42;20.30;99.90
20815;DHT22;10568;48.176;16.316;2022-08-19T02:28:08;20.40;99.90
20815;DHT22;10568;48.176;16.316;2022-08-19T02:30:33;20.40;99.90
20815;DHT22;10568;48.176;16.316;2022-08-19T02:32:59;20.60;99.90
20815;DHT22;10568;48.176;16.316;2022-08-19T02:35:25;20.70;99.90
20815;DHT22;10568;48.176;16.316;2022-08-19T02:37:51;20.70;99.90
20815;DHT22;10568;48.176;16.316;2022-08-19T02:40:36;20.80;99.90
20815;DHT22;10568;48.176;16.316;2022-08-19T02:43:06;20.80;99.90
20815;DHT22;10568;48.176;16.316;2022-08-19T02:45:37;20.90;99.90
20815;DHT22;10568;48.176;16.316;2022-08-19T02:48:04;21.00;99.90
20815;DHT22;10568;48.176;16.316;2022-08-19T02:50:31;21.00;99.90
20815;DHT22;10568;48.176;16.316;2022-08-19T02:52:57;21.00;99.90
20815;DHT22;10568;48.176;16.316;2022-08-19T02:55:23;21.00;99.90
20815;DHT22;10568;48.176;16.316;2022-08-19T02:57:49;21.10;99.90
20815;DHT22;10568;48.176;16.316;2022-08-19T03:00:15;21.10;99.90
20815;DHT22;10568;48.176;16.316;2022-08-19T03:02:40;21.10;99.90
20815;DHT22;10568;48.176;16.316;2022-08-19T03:05:08;21.10;99.90
20815;DHT22;10568;48.176;16.316;2022-08-19T03:07:35;21.10;99.90
20815;DHT22;10568;48.176;16.316;2022-08-19T03:10:01;21.10;99.90
20815;DHT22;10568;48.176;16.316;2022-08-19T03:12:26;21.20;99.90
20815;DHT22;10568;48.176;16.316;2022-08-19T03:14:52;21.20;99.90
20815;DHT22;10568;48.176;16.316;2022-08-19T03:17:18;21.20;99.90
20815;DHT22;10568;48.176;16.316;2022-08-19T03:19:44;21.20;99.90
20815;DHT22;10568;48.176;16.316;2022-08-19T03:22:10;21.20;99.90
20815;DHT22;10568;48.176;16.316;2022-08-19T03:24:37;21.20;99.90
20815;DHT22;10568;48.176;16.316;2022-08-19T03:27:03;21.20;99.90
20815;DHT22;10568;48.176;16.316;2022-08-19T03:29:31;21.20;99.90
20815;DHT22;10568;48.176;16.316;2022-08-19T03:32:02;21.20;99.90
20815;DHT22;10568;48.176;16.316;2022-08-19T03:34:30;21.20;99.90
20815;DHT22;10568;48.176;16.316;2022-08-19T03:37:02;21.20;99.90
20815;DHT22;10568;48.176;16.316;2022-08-19T03:39:29;21.20;99.90
20815;DHT22;10568;48.176;16.316;2022-08-19T03:41:55;21.10;99.90
20815;DHT22;10568;48.176;16.316;2022-08-19T03:44:28;21.10;99.90
20815;DHT22;10568;48.176;16.316;2022-08-19T03:46:57;21.10;99.90
20815;DHT22;10568;48.176;16.316;2022-08-19T03:49:28;21.10;99.90
20815;DHT22;10568;48.176;16.316;2022-08-19T03:51:56;21.00;99.90
20815;DHT22;10568;48.176;16.316;2022-08-19T03:54:23;21.10;99.90
20815;DHT22;10568;48.176;16.316;2022-08-19T03:56:51;21.10;99.90
20815;DHT22;10568;48.176;16.316;2022-08-19T03:59:21;21.10;99.90
20815;DHT22;10568;48.176;16.316;2022-08-19T04:01:47;21.10;99.90
20815;DHT22;10568;48.176;16.316;2022-08-19T04:04:13;21.10;99.90
20815;DHT22;10568;48.176;16.316;2022-08-19T04:06:39;21.20;99.90
20815;DHT22;10568;48.176;16.316;2022-08-19T04:09:08;21.20;99.90
20815;DHT22;10568;48.176;16.316;2022-08-19T04:11:38;21.20;99.90
20815;DHT22;10568;48.176;16.316;2022-08-19T04:14:08;21.20;99.90
20815;DHT22;10568;48.176;16.316;2022-08-19T04:16:34;21.20;99.90
20815;DHT22;10568;48.176;16.316;2022-08-19T04:19:01;21.20;99.90
20815;DHT22;10568;48.176;16.316;2022-08-19T04:21:27;21.20;99.90
20815;DHT22;10568;48.176;16.316;2022-08-19T04:23:54;21.20;99.90
20815;DHT22;10568;48.176;16.316;2022-08-19T04:26:24;21.30;99.90
20815;DHT22;10568;48.176;16.316;2022-08-19T04:28:51;21.30;99.90
20815;DHT22;10568;48.176;16.316;2022-08-19T04:31:24;21.40;99.90
20815;DHT22;10568;48.176;16.316;2022-08-19T04:33:54;21.40;99.90
20815;DHT22;10568;48.176;16.316;2022-08-19T04:36:24;21.50;99.90
20815;DHT22;10568;48.176;16.316;2022-08-19T04:38:54;21.50;99.90
20815;DHT22;10568;48.176;16.316;2022-08-19T04:41:19;21.50;99.90
20815;DHT22;10568;48.176;16.316;2022-08-19T04:44:04;21.60;99.90
20815;DHT22;10568;48.176;16.316;2022-08-19T04:46:30;21.70;99.90
20815;DHT22;10568;48.176;16.316;2022-08-19T04:48:57;21.70;99.90
20815;DHT22;10568;48.176;16.316;2022-08-19T04:51:23;21.80;99.90
20815;DHT22;10568;48.176;16.316;2022-08-19T04:53:49;21.80;99.90
20815;DHT22;10568;48.176;16.316;2022-08-19T04:56:17;21.90;99.90
20815;DHT22;10568;48.176;16.316;2022-08-19T04:58:45;21.90;99.90
20815;DHT22;10568;48.176;16.316;2022-08-19T05:01:18;21.90;99.90
20815;DHT22;10568;48.176;16.316;2022-08-19T05:03:44;22.00;99.90
20815;DHT22;10568;48.176;16.316;2022-08-19T05:06:12;22.10;99.90
20815;DHT22;10568;48.176;16.316;2022-08-19T05:08:40;22.10;99.90
20815;DHT22;10568;48.176;16.316;2022-08-19T05:11:15;22.20;99.90
20815;DHT22;10568;48.176;16.316;2022-08-19T05:13:42;22.20;99.90
20815;DHT22;10568;48.176;16.316;2022-08-19T05:16:09;22.30;99.90
20815;DHT22;10568;48.176;16.316;2022-08-19T05:18:35;22.30;99.90
20815;DHT22;10568;48.176;16.316;2022-08-19T05:21:20;22.40;99.90
20815;DHT22;10568;48.176;16.316;2022-08-19T05:24:06;22.50;99.90
20815;DHT22;10568;48.176;16.316;2022-08-19T05:26:38;22.50;99.90
20815;DHT22;10568;48.176;16.316;2022-08-19T05:29:05;22.50;99.90
20815;DHT22;10568;48.176;16.316;2022-08-19T05:31:32;22.60;99.90
20815;DHT22;10568;48.176;16.316;2022-08-19T05:33:58;22.50;99.90
20815;DHT22;10568;48.176;16.316;2022-08-19T05:36:26;22.60;99.90
20815;DHT22;10568;48.176;16.316;2022-08-19T05:38:52;22.60;99.90
20815;DHT22;10568;48.176;16.316;2022-08-19T05:41:19;22.60;99.90
20815;DHT22;10568;48.176;16.316;2022-08-19T05:43:45;22.60;99.90
20815;DHT22;10568;48.176;16.316;2022-08-19T05:46:18;22.70;99.90
20815;DHT22;10568;48.176;16.316;2022-08-19T05:48:45;22.70;99.90
20815;DHT22;10568;48.176;16.316;2022-08-19T05:51:11;22.70;99.90
20815;DHT22;10568;48.176;16.316;2022-08-19T05:53:37;22.70;99.90
20815;DHT22;10568;48.176;16.316;2022-08-19T05:56:08;22.70;99.90
20815;DHT22;10568;48.176;16.316;2022-08-19T05:58:35;22.80;99.90
20815;DHT22;10568;48.176;16.316;2022-08-19T06:01:02;22.90;99.90
20815;DHT22;10568;48.176;16.316;2022-08-19T06:03:32;22.90;99.90
20815;DHT22;10568;48.176;16.316;2022-08-19T06:05:59;23.00;99.90
20815;DHT22;10568;48.176;16.316;2022-08-19T06:08:26;23.10;99.90
20815;DHT22;10568;48.176;16.316;2022-08-19T06:10:53;23.10;99.90
20815;DHT22;10568;48.176;16.316;2022-08-19T06:13:19;23.10;99.90
20815;DHT22;10568;48.176;16.316;2022-08-19T06:15:45;23.20;99.90
20815;DHT22;10568;48.176;16.316;2022-08-19T06:18:24;23.20;99.90
20815;DHT22;10568;48.176;16.316;2022-08-19T06:20:49;23.30;99.90
20815;DHT22;10568;48.176;16.316;2022-08-19T06:23:15;23.20;99.90
20815;DHT22;10568;48.176;16.316;2022-08-19T06:25:41;23.30;99.90
20815;DHT22;10568;48.176;16.316;2022-08-19T06:28:07;23.40;99.90
20815;DHT22;10568;48.176;16.316;2022-08-19T06:30:33;23.50;99.90
20815;DHT22;10568;48.176;16.316;2022-08-19T06:32:59;23.60;99.90
20815;DHT22;10568;48.176;16.316;2022-08-19T06:35:24;23.60;99.90
20815;DHT22;10568;48.176;16.316;2022-08-19T06:37:50;23.70;99.90
20815;DHT22;10568;48.176;16.316;2022-08-19T06:40:17;23.80;99.90
20815;DHT22;10568;48.176;16.316;2022-08-19T06:42:43;23.90;99.90
20815;DHT22;10568;48.176;16.316;2022-08-19T06:45:09;24.10;99.90
20815;DHT22;10568;48.176;16.316;2022-08-19T06:47:35;24.20;99.90
20815;DHT22;10568;48.176;16.316;2022-08-19T06:50:02;24.30;99.90
20815;DHT22;10568;48.176;16.316;2022-08-19T06:52:32;24.30;99.90
20815;DHT22;10568;48.176;16.316;2022-08-19T06:54:59;24.40;99.90
20815;DHT22;10568;48.176;16.316;2022-08-19T06:57:26;24.50;99.90
20815;DHT22;10568;48.176;16.316;2022-08-19T06:59:52;24.70;99.90
20815;DHT22;10568;48.176;16.316;2022-08-19T07:02:18;24.80;99.90
20815;DHT22;10568;48.176;16.316;2022-08-19T07:04:44;24.90;99.90
20815;DHT22;10568;48.176;16.316;2022-08-19T07:07:12;24.90;99.90
20815;DHT22;10568;48.176;16.316;2022-08-19T07:09:41;25.00;99.90
20815;DHT22;10568;48.176;16.316;2022-08-19T07:12:09;25.10;99.90
20815;DHT22;10568;48.176;16.316;2022-08-19T07:14:36;25.30;99.90
20815;DHT22;10568;48.176;16.316;2022-08-19T07:17:07;25.50;99.90
20815;DHT22;10568;48.176;16.316;2022-08-19T07:19:34;25.40;99.90
20815;DHT22;10568;48.176;16.316;2022-08-19T07:22:02;25.50;99.90
20815;DHT22;10568;48.176;16.316;2022-08-19T07:24:29;25.50;99.90
20815;DHT22;10568;48.176;16.316;2022-08-19T07:26:58;25.50;99.90
20815;DHT22;10568;48.176;16.316;2022-08-19T07:29:27;25.50;99.90
20815;DHT22;10568;48.176;16.316;2022-08-19T07:31:54;25.60;99.90
20815;DHT22;10568;48.176;16.316;2022-08-19T07:34:25;25.70;99.90
20815;DHT22;10568;48.176;16.316;2022-08-19T07:36:51;25.50;99.90
20815;DHT22;10568;48.176;16.316;2022-08-19T07:39:23;25.70;99.90
20815;DHT22;10568;48.176;16.316;2022-08-19T07:41:49;25.80;99.90
20815;DHT22;10568;48.176;16.316;2022-08-19T07:44:17;25.90;99.90
20815;DHT22;10568;48.176;16.316;2022-08-19T07:46:46;26.10;99.90
20815;DHT22;10568;48.176;16.316;2022-08-19T07:49:14;26.20;99.90
20815;DHT22;10568;48.176;16.316;2022-08-19T07:51:50;26.40;99.90
20815;DHT22;10568;48.176;16.316;2022-08-19T07:54:17;26.50;99.90
20815;DHT22;10568;48.176;16.316;2022-08-19T07:56:43;26.70;99.90
20815;DHT22;10568;48.176;16.316;2022-08-19T07:59:09;27.00;99.90
20815;DHT22;10568;48.176;16.316;2022-08-19T08:01:36;27.00;99.90
20815;DHT22;10568;48.176;16.316;2022-08-19T08:04:02;27.30;99.90
20815;DHT22;10568;48.176;16.316;2022-08-19T08:06:46;27.70;99.90
20815;DHT22;10568;48.176;16.316;2022-08-19T08:09:38;27.90;99.90
20815;DHT22;10568;48.176;16.316;2022-08-19T08:12:29;27.90;99.90
20815;DHT22;10568;48.176;16.316;2022-08-19T08:14:59;28.20;99.90
20815;DHT22;10568;48.176;16.316;2022-08-19T08:17:28;28.50;99.90
20815;DHT22;10568;48.176;16.316;2022-08-19T08:19:54;28.80;99.90
20815;DHT22;10568;48.176;16.316;2022-08-19T08:22:21;28.90;99.90
20815;DHT22;10568;48.176;16.316;2022-08-19T08:25:11;29.20;99.90
20815;DHT22;10568;48.176;16.316;2022-08-19T08:27:39;29.40;99.90
20815;DHT22;10568;48.176;16.316;2022-08-19T08:30:09;29.40;99.90
20815;DHT22;10568;48.176;16.316;2022-08-19T08:32:37;29.50;99.90
20815;DHT22;10568;48.176;16.316;2022-08-19T08:35:09;29.70;99.90
20815;DHT22;10568;48.176;16.316;2022-08-19T08:37:35;29.80;99.90
20815;DHT22;10568;48.176;16.316;2022-08-19T08:43:06;29.50;99.90
20815;DHT22;10568;48.176;16.316;2022-08-19T08:45:42;29.80;99.90
20815;DHT22;10568;48.176;16.316;2022-08-19T08:51:11;29.90;99.90
20815;DHT22;10568;48.176;16.316;2022-08-19T08:53:38;30.00;99.90
20815;DHT22;10568;48.176;16.316;2022-08-19T08:56:06;30.00;99.90
20815;DHT22;10568;48.176;16.316;2022-08-19T08:58:36;30.00;99.90
20815;DHT22;10568;48.176;16.316;2022-08-19T09:01:09;29.90;99.90
20815;DHT22;10568;48.176;16.316;2022-08-19T09:03:37;30.00;99.90
20815;DHT22;10568;48.176;16.316;2022-08-19T09:06:11;29.90;99.90
20815;DHT22;10568;48.176;16.316;2022-08-19T09:09:04;29.80;99.90
20815;DHT22;10568;48.176;16.316;2022-08-19T09:16:46;30.70;99.90
20815;DHT22;10568;48.176;16.316;2022-08-19T09:19:11;30.80;99.90
20815;DHT22;10568;48.176;16.316;2022-08-19T09:21:37;30.80;98.20
20815;DHT22;10568;48.176;16.316;2022-08-19T09:24:04;31.00;98.60
20815;DHT22;10568;48.176;16.316;2022-08-19T09:26:31;31.20;98.10
20815;DHT22;10568;48.176;16.316;2022-08-19T09:28:58;31.40;99.90
20815;DHT22;10568;48.176;16.316;2022-08-19T09:31:27;31.80;98.50
20815;DHT22;10568;48.176;16.316;2022-08-19T09:33:53;31.70;97.20
20815;DHT22;10568;48.176;16.316;2022-08-19T09:36:24;31.70;97.80
20815;DHT22;10568;48.176;16.316;2022-08-19T09:38:50;31.70;98.30
20815;DHT22;10568;48.176;16.316;2022-08-19T09:41:20;31.80;96.50
20815;DHT22;10568;48.176;16.316;2022-08-19T09:43:49;32.30;99.00
20815;DHT22;10568;48.176;16.316;2022-08-19T09:46:18;32.80;99.90
20815;DHT22;10568;48.176;16.316;2022-08-19T09:48:47;32.90;94.50
20815;DHT22;10568;48.176;16.316;2022-08-19T09:51:18;33.20;94.60
20815;DHT22;10568;48.176;16.316;2022-08-19T09:53:45;33.40;94.20
20815;DHT22;10568;48.176;16.316;2022-08-19T09:56:12;33.40;92.40
20815;DHT22;10568;48.176;16.316;2022-08-19T09:58:38;33.60;91.80
20815;DHT22;10568;48.176;16.316;2022-08-19T10:01:05;33.80;91.80
20815;DHT22;10568;48.176;16.316;2022-08-19T10:03:34;33.50;92.70
20815;DHT22;10568;48.176;16.316;2022-08-19T10:06:02;33.30;92.70
20815;DHT22;10568;48.176;16.316;2022-08-19T10:08:32;33.00;91.00
20815;DHT22;10568;48.176;16.316;2022-08-19T10:10:58;32.80;91.90
20815;DHT22;10568;48.176;16.316;2022-08-19T10:13:26;32.70;91.90
20815;DHT22;10568;48.176;16.316;2022-08-19T10:15:53;32.50;93.10
20815;DHT22;10568;48.176;16.316;2022-08-19T10:18:20;32.30;92.90
20815;DHT22;10568;48.176;16.316;2022-08-19T10:20:47;32.10;92.10
20815;DHT22;10568;48.176;16.316;2022-08-19T10:23:14;32.00;93.60
20815;DHT22;10568;48.176;16.316;2022-08-19T10:25:41;31.90;94.30
20815;DHT22;10568;48.176;16.316;2022-08-19T10:28:07;31.90;92.20
20815;DHT22;10568;48.176;16.316;2022-08-19T10:30:35;31.80;94.70
20815;DHT22;10568;48.176;16.316;2022-08-19T10:33:01;31.60;95.30
20815;DHT22;10568;48.176;16.316;2022-08-19T10:35:26;31.40;95.00
20815;DHT22;10568;48.176;16.316;2022-08-19T10:37:55;31.10;96.10
20815;DHT22;10568;48.176;16.316;2022-08-19T10:40:25;30.70;95.80
20815;DHT22;10568;48.176;16.316;2022-08-19T10:42:51;30.30;98.20
20815;DHT22;10568;48.176;16.316;2022-08-19T10:45:17;30.00;99.20
20815;DHT22;10568;48.176;16.316;2022-08-19T10:47:43;29.70;99.90
20815;DHT22;10568;48.176;16.316;2022-08-19T10:50:09;29.50;99.90
20815;DHT22;10568;48.176;16.316;2022-08-19T10:52:53;29.40;99.90
20815;DHT22;10568;48.176;16.316;2022-08-19T10:55:22;28.80;99.90
20815;DHT22;10568;48.176;16.316;2022-08-19T10:58:16;28.70;99.90
20815;DHT22;10568;48.176;16.316;2022-08-19T11:00:50;28.50;99.90
20815;DHT22;10568;48.176;16.316;2022-08-19T11:03:16;28.40;99.90
20815;DHT22;10568;48.176;16.316;2022-08-19T11:05:41;28.20;99.90
20815;DHT22;10568;48.176;16.316;2022-08-19T11:08:08;28.00;99.90
20815;DHT22;10568;48.176;16.316;2022-08-19T11:10:41;28.10;99.90
20815;DHT22;10568;48.176;16.316;2022-08-19T11:13:08;27.90;99.90
20815;DHT22;10568;48.176;16.316;2022-08-19T11:15:33;27.60;99.90
20815;DHT22;10568;48.176;16.316;2022-08-19T11:18:00;27.40;99.90
20815;DHT22;10568;48.176;16.316;2022-08-19T11:20:25;27.40;99.90
20815;DHT22;10568;48.176;16.316;2022-08-19T11:22:52;27.30;99.90
20815;DHT22;10568;48.176;16.316;2022-08-19T11:25:19;27.20;99.90
20815;DHT22;10568;48.176;16.316;2022-08-19T11:27:44;27.00;99.90
20815;DHT22;10568;48.176;16.316;2022-08-19T11:30:13;27.10;99.90
20815;DHT22;10568;48.176;16.316;2022-08-19T11:32:40;27.20;99.90
20815;DHT22;10568;48.176;16.316;2022-08-19T11:35:06;27.30;99.90
20815;DHT22;10568;48.176;16.316;2022-08-19T11:37:32;28.00;99.90
20815;DHT22;10568;48.176;16.316;2022-08-19T11:40:04;28.40;99.90
20815;DHT22;10568;48.176;16.316;2022-08-19T11:42:30;28.50;99.90
20815;DHT22;10568;48.176;16.316;2022-08-19T11:45:14;28.60;99.90
20815;DHT22;10568;48.176;16.316;2022-08-19T11:47:40;28.60;99.90
20815;DHT22;10568;48.176;16.316;2022-08-19T11:50:06;28.60;99.90
20815;DHT22;10568;48.176;16.316;2022-08-19T11:52:32;28.60;99.90
20815;DHT22;10568;48.176;16.316;2022-08-19T11:54:58;29.00;99.90
20815;DHT22;10568;48.176;16.316;2022-08-19T11:57:23;29.60;99.90
20815;DHT22;10568;48.176;16.316;2022-08-19T11:59:51;30.10;99.90
20815;DHT22;10568;48.176;16.316;2022-08-19T12:02:18;30.60;99.90
20815;DHT22;10568;48.176;16.316;2022-08-19T12:04:44;30.60;99.70
20815;DHT22;10568;48.176;16.316;2022-08-19T12:07:10;30.40;99.20
20815;DHT22;10568;48.176;16.316;2022-08-19T12:09:36;30.40;98.40
20815;DHT22;10568;48.176;16.316;2022-08-19T12:12:02;30.30;98.30
20815;DHT22;10568;48.176;16.316;2022-08-19T12:14:27;30.20;96.70
20815;DHT22;10568;48.176;16.316;2022-08-19T12:16:55;30.10;98.40
20815;DHT22;10568;48.176;16.316;2022-08-19T12:19:21;30.00;98.20
20815;DHT22;10568;48.176;16.316;2022-08-19T12:21:47;30.00;98.00
20815;DHT22;10568;48.176;16.316;2022-08-19T12:24:13;30.20;98.30
20815;DHT22;10568;48.176;16.316;2022-08-19T12:26:38;30.50;98.10
20815;DHT22;10568;48.176;16.316;2022-08-19T12:29:04;31.00;97.60
20815;DHT22;10568;48.176;16.316;2022-08-19T12:31:31;31.40;97.20
20815;DHT22;10568;48.176;16.316;2022-08-19T12:33:57;31.30;98.00
20815;DHT22;10568;48.176;16.316;2022-08-19T12:36:23;31.10;95.80
20815;DHT22;10568;48.176;16.316;2022-08-19T12:38:51;30.90;97.60
20815;DHT22;10568;48.176;16.316;2022-08-19T12:41:18;30.70;96.70
20815;DHT22;10568;48.176;16.316;2022-08-19T12:43:44;30.50;96.60
20815;DHT22;10568;48.176;16.316;2022-08-19T12:46:11;30.30;97.10
20815;DHT22;10568;48.176;16.316;2022-08-19T12:48:38;30.10;98.70
20815;DHT22;10568;48.176;16.316;2022-08-19T12:51:09;29.80;97.50
20815;DHT22;10568;48.176;16.316;2022-08-19T12:53:35;29.60;98.80
20815;DHT22;10568;48.176;16.316;2022-08-19T12:56:01;29.30;99.30
20815;DHT22;10568;48.176;16.316;2022-08-19T12:58:27;29.10;99.90
20815;DHT22;10568;48.176;16.316;2022-08-19T13:00:54;29.00;99.10
20815;DHT22;10568;48.176;16.316;2022-08-19T13:03:20;28.90;99.90
20815;DHT22;10568;48.176;16.316;2022-08-19T13:05:47;28.90;99.90
20815;DHT22;10568;48.176;16.316;2022-08-19T13:08:15;28.80;99.90
20815;DHT22;10568;48.176;16.316;2022-08-19T13:10:42;28.70;99.90
20815;DHT22;10568;48.176;16.316;2022-08-19T13:13:08;28.60;99.00
20815;DHT22;10568;48.176;16.316;2022-08-19T13:15:41;28.50;99.90
20815;DHT22;10568;48.176;16.316;2022-08-19T13:18:11;28.40;99.90
20815;DHT22;10568;48.176;16.316;2022-08-19T13:20:39;28.20;99.90
20815;DHT22;10568;48.176;16.316;2022-08-19T13:23:06;28.20;99.90
20815;DHT22;10568;48.176;16.316;2022-08-19T13:25:33;28.10;99.90
20815;DHT22;10568;48.176;16.316;2022-08-19T13:27:59;28.00;99.90
20815;DHT22;10568;48.176;16.316;2022-08-19T13:30:25;27.90;99.90
20815;DHT22;10568;48.176;16.316;2022-08-19T13:33:17;27.80;99.90
20815;DHT22;10568;48.176;16.316;2022-08-19T13:38:12;27.60;99.90
20815;DHT22;10568;48.176;16.316;2022-08-19T13:40:39;27.60;99.90
20815;DHT22;10568;48.176;16.316;2022-08-19T13:43:05;27.50;99.90
20815;DHT22;10568;48.176;16.316;2022-08-19T13:45:32;27.40;99.90
20815;DHT22;10568;48.176;16.316;2022-08-19T13:48:00;27.40;99.90
20815;DHT22;10568;48.176;16.316;2022-08-19T13:50:32;27.50;99.90
20815;DHT22;10568;48.176;16.316;2022-08-19T13:52:59;27.50;99.90
20815;DHT22;10568;48.176;16.316;2022-08-19T13:55:26;27.50;99.90
20815;DHT22;10568;48.176;16.316;2022-08-19T13:57:53;27.60;99.90
20815;DHT22;10568;48.176;16.316;2022-08-19T14:00:21;27.60;99.90
20815;DHT22;10568;48.176;16.316;2022-08-19T14:02:51;27.60;99.90
20815;DHT22;10568;48.176;16.316;2022-08-19T14:05:18;27.60;99.90
20815;DHT22;10568;48.176;16.316;2022-08-19T14:07:44;27.60;99.90
20815;DHT22;10568;48.176;16.316;2022-08-19T14:10:11;27.70;99.90
20815;DHT22;10568;48.176;16.316;2022-08-19T14:12:39;27.70;99.90
20815;DHT22;10568;48.176;16.316;2022-08-19T14:15:06;27.90;99.90
20815;DHT22;10568;48.176;16.316;2022-08-19T14:17:32;28.10;99.90
20815;DHT22;10568;48.176;16.316;2022-08-19T14:20:02;28.30;99.90
20815;DHT22;10568;48.176;16.316;2022-08-19T14:22:34;28.60;99.90
20815;DHT22;10568;48.176;16.316;2022-08-19T14:25:00;28.90;99.90
20815;DHT22;10568;48.176;16.316;2022-08-19T14:27:26;29.20;99.90
20815;DHT22;10568;48.176;16.316;2022-08-19T14:29:52;29.20;98.60
20815;DHT22;10568;48.176;16.316;2022-08-19T14:32:18;29.50;99.90
20815;DHT22;10568;48.176;16.316;2022-08-19T14:34:44;29.90;99.90
20815;DHT22;10568;48.176;16.316;2022-08-19T14:37:13;30.10;99.90
20815;DHT22;10568;48.176;16.316;2022-08-19T14:39:43;30.10;99.60
20815;DHT22;10568;48.176;16.316;2022-08-19T14:42:11;30.00;99.90
20815;DHT22;10568;48.176;16.316;2022-08-19T14:44:37;30.00;99.30
20815;DHT22;10568;48.176;16.316;2022-08-19T14:47:03;29.80;98.30
20815;DHT22;10568;48.176;16.316;2022-08-19T14:49:29;29.80;96.60
20815;DHT22;10568;48.176;16.316;2022-08-19T14:51:54;29.70;97.10
20815;DHT22;10568;48.176;16.316;2022-08-19T14:54:20;29.50;96.90
20815;DHT22;10568;48.176;16.316;2022-08-19T14:56:46;29.50;97.20
20815;DHT22;10568;48.176;16.316;2022-08-19T14:59:13;29.40;98.00
20815;DHT22;10568;48.176;16.316;2022-08-19T15:01:39;29.30;96.30
20815;DHT22;10568;48.176;16.316;2022-08-19T15:04:05;29.30;96.60
20815;DHT22;10568;48.176;16.316;2022-08-19T15:06:30;29.20;96.10
20815;DHT22;10568;48.176;16.316;2022-08-19T15:08:57;29.20;95.90
20815;DHT22;10568;48.176;16.316;2022-08-19T15:11:25;29.10;96.40
20815;DHT22;10568;48.176;16.316;2022-08-19T15:13:54;29.00;95.90
20815;DHT22;10568;48.176;16.316;2022-08-19T15:16:20;28.80;95.00
20815;DHT22;10568;48.176;16.316;2022-08-19T15:18:49;28.80;96.70
20815;DHT22;10568;48.176;16.316;2022-08-19T15:21:16;28.70;96.10
20815;DHT22;10568;48.176;16.316;2022-08-19T15:23:47;28.60;95.70
20815;DHT22;10568;48.176;16.316;2022-08-19T15:26:17;28.50;96.20
20815;DHT22;10568;48.176;16.316;2022-08-19T15:28:44;28.40;96.80
20815;DHT22;10568;48.176;16.316;2022-08-19T15:31:11;28.30;96.70
20815;DHT22;10568;48.176;16.316;2022-08-19T15:33:39;28.20;97.50
20815;DHT22;10568;48.176;16.316;2022-08-19T15:36:08;28.10;97.10